createdAt,value
2023-05-19T03:14:32.672Z,11.58
2023-05-19T03:17:36.389Z,11.59
2023-05-19T03:20:41.503Z,11.60
2023-05-19T03:23:44.371Z,11.61
2023-05-19T03:26:46.526Z,11.61
2023-05-19T03:29:48.972Z,11.58
2023-05-19T03:32:52.082Z,11.66
2023-05-19T03:35:55.928Z,11.72
2023-05-19T03:38:59.169Z,11.73
2023-05-19T03:42:01.693Z,11.77
2023-05-19T03:45:04.324Z,11.73
2023-05-19T03:48:07.204Z,11.81
2023-05-19T03:51:10.003Z,11.83
2023-05-19T03:54:12.517Z,11.97
2023-05-19T03:57:15.723Z,11.95
2023-05-19T04:00:18.955Z,11.95
2023-05-19T04:03:21.702Z,11.99
2023-05-19T04:06:24.043Z,12.08
2023-05-19T04:09:26.591Z,12.09
2023-05-19T04:12:30.307Z,12.10
2023-05-19T04:15:32.901Z,12.43
2023-05-19T04:18:35.132Z,12.93
2023-05-19T04:21:37.627Z,12.92
2023-05-19T04:24:40.420Z,13.07
2023-05-19T04:27:43.176Z,13.28
2023-05-19T04:30:46.776Z,13.19
2023-05-19T04:33:49.750Z,12.74
2023-05-19T04:36:53.489Z,12.63
2023-05-19T04:39:56.316Z,12.79
2023-05-19T04:42:59.062Z,12.96
2023-05-19T04:46:02.116Z,12.84
2023-05-19T04:49:04.383Z,12.93
2023-05-19T04:52:11.156Z,13.21
2023-05-19T04:55:15.900Z,13.51
2023-05-19T04:58:19.643Z,13.63
2023-05-19T05:01:26.266Z,13.81
2023-05-19T05:04:29.199Z,14.14
2023-05-19T05:07:32.470Z,14.47
2023-05-19T05:10:36.083Z,14.77
2023-05-19T05:13:38.580Z,15.16
2023-05-19T05:16:41.775Z,15.46
2023-05-19T05:19:45.098Z,15.47
2023-05-19T05:22:47.944Z,15.61
2023-05-19T05:25:50.698Z,15.89
2023-05-19T05:28:54.105Z,15.70
2023-05-19T05:31:56.730Z,15.57
2023-05-19T05:34:59.870Z,15.80
2023-05-19T05:38:02.785Z,15.77
2023-05-19T05:41:05.506Z,15.61
2023-05-19T05:44:07.934Z,16.18
2023-05-19T05:47:11.982Z,16.09
2023-05-19T05:50:14.807Z,16.08
2023-05-19T05:53:19.672Z,16.06
2023-05-19T05:56:23.135Z,15.90
2023-05-19T05:59:26.576Z,15.83
2023-05-19T06:02:30.017Z,15.84
2023-05-19T06:05:33.277Z,15.55
2023-05-19T06:08:35.796Z,15.74
2023-05-19T06:11:41.611Z,16.02
2023-05-19T06:14:46.423Z,16.81
2023-05-19T06:17:49.504Z,17.25
2023-05-19T06:20:51.733Z,17.70
2023-05-19T06:23:54.699Z,17.04
2023-05-19T06:26:56.942Z,16.68
2023-05-19T06:29:59.730Z,16.87
2023-05-19T06:33:03.545Z,16.98
2023-05-19T06:36:06.407Z,16.57
2023-05-19T06:39:09.304Z,16.80
2023-05-19T06:42:12.196Z,17.21
2023-05-19T06:45:16.911Z,17.70
2023-05-19T06:48:19.851Z,17.82
2023-05-19T06:51:23.404Z,17.62
2023-05-19T06:54:26.756Z,17.38
2023-05-19T06:57:29.313Z,17.70
2023-05-19T07:00:32.429Z,17.86
2023-05-19T07:03:36.318Z,18.28
2023-05-19T07:06:39.113Z,18.45
2023-05-19T07:09:41.604Z,18.56
2023-05-19T07:12:44.193Z,19.32
2023-05-19T07:15:48.976Z,19.70
2023-05-19T07:18:52.049Z,19.15
2023-05-19T07:21:55.003Z,19.73
2023-05-19T07:24:57.551Z,20.38
2023-05-19T07:27:59.942Z,20.19
2023-05-19T07:31:02.536Z,20.93
2023-05-19T07:34:04.999Z,21.11
2023-05-19T07:37:07.670Z,20.80
2023-05-19T07:40:10.175Z,20.49
2023-05-19T07:43:12.874Z,21.06
2023-05-19T07:46:15.285Z,21.84
2023-05-19T07:49:17.843Z,22.40
2023-05-19T07:52:20.119Z,21.81
2023-05-19T07:55:23.986Z,21.65
2023-05-19T07:58:26.491Z,21.94
2023-05-19T08:01:30.551Z,21.79
2023-05-19T08:04:33.591Z,21.05
2023-05-19T08:07:36.173Z,20.24
2023-05-19T08:10:38.691Z,20.46
2023-05-19T08:13:41.063Z,20.51
2023-05-19T08:16:45.023Z,21.21
2023-05-19T08:19:47.229Z,22.58
2023-05-19T08:22:49.967Z,23.12
2023-05-19T08:25:52.401Z,23.62
2023-05-19T08:28:54.902Z,23.86
2023-05-19T08:31:58.462Z,21.80
2023-05-19T08:35:01.069Z,21.75
2023-05-19T08:38:03.317Z,21.58
2023-05-19T08:41:06.217Z,22.68
2023-05-19T08:44:08.512Z,22.36
2023-05-19T08:47:14.500Z,20.82
2023-05-19T08:50:21.317Z,22.00
2023-05-19T08:53:33.691Z,22.28
2023-05-19T08:56:37.963Z,22.07
2023-05-19T08:59:41.512Z,22.13
2023-05-19T09:02:55.072Z,22.89
2023-05-19T09:06:08.637Z,22.99
2023-05-19T09:09:11.557Z,22.58
2023-05-19T09:12:14.404Z,22.81
2023-05-19T09:15:20.982Z,24.24
2023-05-19T09:18:26.065Z,24.74
2023-05-19T09:21:31.073Z,24.56
2023-05-19T09:24:34.135Z,25.45
2023-05-19T09:27:36.314Z,25.05
2023-05-19T09:30:39.521Z,23.65
2023-05-19T09:33:45.570Z,23.00
2023-05-19T09:36:53.513Z,22.78
2023-05-19T09:39:56.543Z,22.48
2023-05-19T09:42:58.975Z,22.36
2023-05-19T09:46:03.931Z,22.57
2023-05-19T09:49:09.841Z,25.21
2023-05-19T09:52:16.297Z,25.55
2023-05-19T09:55:23.035Z,24.16
2023-05-19T09:58:26.458Z,23.19
2023-05-19T10:01:32.907Z,24.06
2023-05-19T10:04:36.278Z,29.07
2023-05-19T10:07:40.541Z,33.47
2023-05-19T10:10:43.384Z,37.43
2023-05-19T10:13:47.161Z,36.87
2023-05-19T10:16:52.588Z,38.76
2023-05-19T10:19:55.102Z,39.75
2023-05-19T10:22:57.580Z,39.08
2023-05-19T10:26:01.492Z,39.38
2023-05-19T10:29:05.243Z,39.85
2023-05-19T10:32:15.306Z,39.25
2023-05-19T10:35:48.999Z,37.22
2023-05-19T10:39:16.665Z,32.37
2023-05-19T10:42:33.524Z,28.94
2023-05-19T10:45:46.029Z,32.44
2023-05-19T10:48:48.528Z,36.21
2023-05-19T10:51:54.879Z,36.40
2023-05-19T10:54:58.241Z,36.75
2023-05-19T10:58:00.533Z,36.52
2023-05-19T11:01:06.890Z,36.86
2023-05-19T11:04:15.592Z,37.89
2023-05-19T11:07:19.825Z,32.70
2023-05-19T11:10:25.242Z,27.22
2023-05-19T11:13:28.599Z,27.52
2023-05-19T11:16:34.601Z,30.90
2023-05-19T11:19:37.197Z,30.50
2023-05-19T11:22:39.971Z,28.69
2023-05-19T11:25:51.284Z,28.10
2023-05-19T11:28:54.655Z,27.12
2023-05-19T11:31:57.497Z,27.39
2023-05-19T11:35:00.755Z,27.75
2023-05-19T11:38:03.612Z,25.95
2023-05-19T11:41:05.990Z,25.68
2023-05-19T11:44:12.039Z,26.22
2023-05-19T11:47:15.150Z,25.35
2023-05-19T11:50:18.291Z,25.47
2023-05-19T11:53:21.089Z,25.60
2023-05-19T11:56:23.709Z,24.68
2023-05-19T11:59:34.925Z,24.84
2023-05-19T12:02:38.575Z,24.80
2023-05-19T12:05:46.839Z,23.85
2023-05-19T12:08:52.133Z,24.12
2023-05-19T12:11:55.100Z,24.67
2023-05-19T12:14:57.333Z,24.93
2023-05-19T12:18:03.629Z,24.75
2023-05-19T12:21:06.493Z,24.91
2023-05-19T12:24:09.704Z,25.15
2023-05-19T12:27:19.960Z,25.22
2023-05-19T12:30:30.728Z,25.16
2023-05-19T12:33:35.653Z,25.08
2023-05-19T12:36:38.733Z,24.99
2023-05-19T12:39:42.789Z,24.94
2023-05-19T12:42:45.572Z,25.30
2023-05-19T12:45:48.212Z,25.23
2023-05-19T12:48:51.694Z,25.02
2023-05-19T12:51:54.424Z,24.70
2023-05-19T12:55:06.151Z,24.94
2023-05-19T12:58:08.901Z,25.24
2023-05-19T13:01:18.678Z,25.52
2023-05-19T13:04:21.251Z,25.07
2023-05-19T13:07:24.131Z,25.26
2023-05-19T13:10:27.625Z,25.25
2023-05-19T13:13:30.086Z,25.13
2023-05-19T13:16:32.261Z,24.87
2023-05-19T13:19:34.788Z,24.49
2023-05-19T13:22:37.003Z,24.49
2023-05-19T13:25:40.420Z,24.52
2023-05-19T13:28:42.597Z,24.19
2023-05-19T13:31:45.106Z,24.14
2023-05-19T13:34:47.689Z,24.52
2023-05-19T13:37:50.241Z,24.98
2023-05-19T13:40:52.443Z,25.02
2023-05-19T13:43:58.316Z,25.18
2023-05-19T13:47:00.453Z,25.35
2023-05-19T13:50:04.610Z,25.67
2023-05-19T13:53:07.094Z,25.68
2023-05-19T13:56:09.773Z,25.15
2023-05-19T13:59:12.092Z,24.75
2023-05-19T14:02:14.667Z,24.42
2023-05-19T14:05:17.222Z,23.70
2023-05-19T14:08:19.512Z,23.36
2023-05-19T14:11:22.569Z,23.20
2023-05-19T14:14:25.156Z,23.16
2023-05-19T14:17:28.411Z,23.36
2023-05-19T14:20:31.776Z,23.69
2023-05-19T14:23:34.552Z,23.75
2023-05-19T14:26:36.818Z,24.05
2023-05-19T14:29:39.340Z,24.15
2023-05-19T14:32:41.587Z,23.95
2023-05-19T14:35:44.060Z,24.02
2023-05-19T14:38:46.294Z,24.02
2023-05-19T14:41:50.990Z,24.10
2023-05-19T14:44:53.314Z,24.25
2023-05-19T14:47:55.912Z,24.38
2023-05-19T14:50:58.141Z,24.24
2023-05-19T14:54:02.241Z,23.88
2023-05-19T14:57:04.631Z,23.61
2023-05-19T15:00:10.117Z,23.84
2023-05-19T15:03:12.337Z,23.76
2023-05-19T15:06:14.965Z,23.57
2023-05-19T15:09:17.205Z,23.41
